Terminal Aerodrome Forecast
Issued by NWS

Home | Current Version | Previous Version | Graphics & Text | Print | Product List | Glossary On
Versions: 1 2 3 4 5 6 7 8 9 10 11 12 13 14 15
000
FTUS43 KIWX 232300
TAFSBN
TAF
KSBN 232338Z 2400/2424 22009KT P6SM OVC015
     FM240700 23008KT P6SM BKN025
     FM241400 28009KT P6SM BKN035=

USA.gov is the U.S. government's official web portal to all federal, state and local government web resources and services.